createdAt,value
2022-11-09T00:00:56.224Z,99383.25
2022-11-09T00:03:23.229Z,99392.75
2022-11-09T00:05:58.282Z,99400.66
2022-11-09T00:08:26.017Z,99388.31
2022-11-09T00:10:52.978Z,99392.81
2022-11-09T00:13:20.262Z,99394.09
2022-11-09T00:15:47.395Z,99394.91
2022-11-09T00:18:14.400Z,99400.50
2022-11-09T00:20:47.290Z,99397.81
2022-11-09T00:23:16.356Z,99395.94
2022-11-09T00:25:43.736Z,99395.94
2022-11-09T00:28:10.921Z,99407.50
2022-11-09T00:30:37.877Z,99415.53
2022-11-09T00:33:05.066Z,99420.91
2022-11-09T00:35:32.069Z,99427.91
2022-11-09T00:37:59.179Z,99427.91
2022-11-09T00:40:26.910Z,99434.06
2022-11-09T00:42:54.074Z,99436.97
2022-11-09T00:45:21.009Z,99429.16
2022-11-09T00:47:47.978Z,99425.50
2022-11-09T00:50:14.941Z,99432.31
2022-11-09T00:52:41.930Z,99445.13
2022-11-09T00:55:09.327Z,99433.41
2022-11-09T00:57:36.310Z,99454.50
2022-11-09T01:00:04.677Z,99463.16
2022-11-09T01:02:31.671Z,99475.34
2022-11-09T01:04:59.948Z,99454.13
2022-11-09T01:07:26.911Z,99433.34
2022-11-09T01:09:53.884Z,99443.09
2022-11-09T01:12:24.403Z,99439.41
2022-11-09T01:14:51.669Z,99463.34
2022-11-09T01:17:18.735Z,99458.63
2022-11-09T01:19:47.199Z,99462.16
2022-11-09T01:22:15.334Z,99473.31
2022-11-09T01:24:42.560Z,99451.50
2022-11-09T01:27:09.506Z,99453.56
2022-11-09T01:29:36.772Z,99447.84
2022-11-09T01:32:04.175Z,99446.59
2022-11-09T01:34:32.474Z,99445.38
2022-11-09T01:37:02.557Z,99448.28
2022-11-09T01:39:30.544Z,99453.25
2022-11-09T01:41:57.519Z,99451.00
2022-11-09T01:44:27.675Z,99443.59
2022-11-09T01:47:06.125Z,99440.09
2022-11-09T01:49:54.910Z,99426.13
2022-11-09T01:52:45.909Z,99427.59
2022-11-09T01:55:18.677Z,99424.91
2022-11-09T01:58:02.449Z,99420.56
2022-11-09T02:00:30.772Z,99421.22
2022-11-09T02:03:22.738Z,99420.34
2022-11-09T02:05:50.743Z,99417.84
2022-11-09T02:08:20.946Z,99416.38
2022-11-09T02:11:11.468Z,99431.00
2022-11-09T02:13:43.126Z,99425.63
2022-11-09T02:16:13.009Z,99424.59
2022-11-09T02:18:54.993Z,99423.56
2022-11-09T02:21:28.185Z,99428.91
2022-11-09T02:23:55.601Z,99433.22
2022-11-09T02:26:39.308Z,99426.00
2022-11-09T02:29:09.837Z,99429.72
2022-11-09T02:31:43.262Z,99427.28
2022-11-09T02:34:19.718Z,99418.19
2022-11-09T02:36:47.945Z,99426.47
2022-11-09T02:39:25.164Z,99418.44
2022-11-09T02:42:03.612Z,99424.59
2022-11-09T02:44:40.711Z,99419.44
2022-11-09T02:47:08.521Z,99418.63
2022-11-09T02:49:35.600Z,99407.91
2022-11-09T02:52:02.802Z,99415.75
2022-11-09T02:54:30.058Z,99417.81
2022-11-09T02:56:57.863Z,99423.97
2022-11-09T02:59:26.066Z,99422.34
2022-11-09T03:01:53.161Z,99423.38
2022-11-09T03:04:20.948Z,99415.34
2022-11-09T03:06:48.096Z,99419.06
2022-11-09T03:09:18.961Z,99411.66
2022-11-09T03:11:46.241Z,99409.22
2022-11-09T03:14:15.361Z,99390.06
2022-11-09T03:16:50.799Z,99389.69
2022-11-09T03:19:18.476Z,99388.69
2022-11-09T03:21:47.375Z,99395.72
2022-11-09T03:24:14.385Z,99393.25
2022-11-09T03:26:42.356Z,99389.75
2022-11-09T03:29:09.526Z,99386.03
2022-11-09T03:31:36.939Z,99392.44
2022-11-09T03:34:06.850Z,99395.34
2022-11-09T03:36:35.753Z,99390.19
2022-11-09T03:39:03.050Z,99385.84
2022-11-09T03:41:30.117Z,99378.88
2022-11-09T03:43:57.151Z,99379.69
2022-11-09T03:46:24.094Z,99390.38
2022-11-09T03:48:51.042Z,99393.88
2022-11-09T03:51:18.033Z,99398.22
2022-11-09T03:53:45.042Z,99413.44
2022-11-09T03:56:11.982Z,99409.75
2022-11-09T03:58:38.921Z,99412.59
2022-11-09T04:01:05.968Z,99413.66
2022-11-09T04:03:32.967Z,99410.34
2022-11-09T04:06:00.306Z,99416.31
2022-11-09T04:08:27.295Z,99414.69
2022-11-09T04:10:54.354Z,99412.00
2022-11-09T04:13:21.622Z,99419.19
2022-11-09T04:15:48.824Z,99426.22
2022-11-09T04:18:17.455Z,99430.53
2022-11-09T04:20:44.923Z,99436.50
2022-11-09T04:23:13.725Z,99437.31
2022-11-09T04:25:42.547Z,99437.09
2022-11-09T04:28:18.844Z,99438.97
2022-11-09T04:30:45.892Z,99437.31
2022-11-09T04:33:12.972Z,99436.50
2022-11-09T04:35:40.168Z,99436.69
2022-11-09T04:38:11.574Z,99433.19
2022-11-09T04:40:39.087Z,99431.34
2022-11-09T04:43:10.405Z,99432.38
2022-11-09T04:45:37.470Z,99419.19
2022-11-09T04:48:07.118Z,99413.03
2022-11-09T04:50:34.781Z,99411.38
2022-11-09T04:53:10.955Z,99406.03
2022-11-09T04:55:39.183Z,99397.19
2022-11-09T04:58:07.201Z,99395.31
2022-11-09T05:00:34.598Z,99387.31
2022-11-09T05:03:06.676Z,99403.34
2022-11-09T05:05:36.598Z,99403.13
2022-11-09T05:08:05.547Z,99398.63
2022-11-09T05:10:33.293Z,99391.22
2022-11-09T05:13:10.295Z,99389.56
2022-11-09T05:15:37.481Z,99401.91
2022-11-09T05:18:05.768Z,99409.75
2022-11-09T05:20:33.246Z,99415.91
2022-11-09T05:23:19.426Z,99417.56
2022-11-09T05:25:47.246Z,99422.91
2022-11-09T05:28:14.614Z,99436.28
2022-11-09T05:30:42.123Z,99446.75
2022-11-09T05:33:09.077Z,99429.06
2022-11-09T05:35:36.066Z,99426.78
2022-11-09T05:38:03.072Z,99432.13
2022-11-09T05:40:30.165Z,99434.81
2022-11-09T05:42:57.280Z,99444.50
2022-11-09T05:45:41.975Z,99443.69
2022-11-09T05:48:12.219Z,99453.34
2022-11-09T05:50:39.796Z,99455.19
2022-11-09T05:53:14.377Z,99454.38
2022-11-09T05:55:41.524Z,99458.88
2022-11-09T05:58:08.997Z,99461.56
2022-11-09T06:00:36.727Z,99462.41
2022-11-09T06:03:06.166Z,99458.69
2022-11-09T06:05:34.880Z,99464.88
2022-11-09T06:08:14.146Z,99463.00
2022-11-09T06:10:42.269Z,99466.50
2022-11-09T06:13:10.285Z,99470.81
2022-11-09T06:15:37.340Z,99487.69
2022-11-09T06:18:04.492Z,99485.84
2022-11-09T06:20:33.055Z,99486.66
2022-11-09T06:23:03.774Z,99481.13
2022-11-09T06:25:32.821Z,99479.25
2022-11-09T06:27:59.948Z,99470.41
2022-11-09T06:30:26.972Z,99460.31
2022-11-09T06:33:03.557Z,99453.31
2022-11-09T06:35:30.746Z,99472.06
2022-11-09T06:38:01.532Z,99475.94
2022-11-09T06:40:29.284Z,99478.84
2022-11-09T06:43:00.684Z,99465.69
2022-11-09T06:45:29.720Z,99478.25
2022-11-09T06:47:58.733Z,99480.09
2022-11-09T06:50:28.277Z,99475.56
2022-11-09T06:53:01.814Z,99464.88
2022-11-09T06:55:30.117Z,99477.63
2022-11-09T06:57:58.417Z,99481.97
2022-11-09T07:00:27.776Z,99475.16
2022-11-09T07:02:54.823Z,99485.03
2022-11-09T07:05:21.955Z,99481.53
2022-11-09T07:07:49.200Z,99476.41
2022-11-09T07:10:16.996Z,99485.47
2022-11-09T07:12:44.100Z,99491.66
2022-11-09T07:15:12.229Z,99487.13
2022-11-09T07:17:40.168Z,99480.13
2022-11-09T07:20:11.455Z,99478.50
2022-11-09T07:22:39.810Z,99478.50
2022-11-09T07:25:08.642Z,99482.16
2022-11-09T07:27:36.201Z,99469.00
2022-11-09T07:30:04.354Z,99469.00
2022-11-09T07:35:23.698Z,99480.94
2022-11-09T07:37:50.639Z,99486.50
2022-11-09T07:40:17.613Z,99490.41
2022-11-09T07:42:44.966Z,99500.28
2022-11-09T07:45:12.024Z,99501.31
2022-11-09T07:47:38.966Z,99496.78
2022-11-09T07:50:06.829Z,99492.25
2022-11-09T07:52:33.824Z,99490.41
2022-11-09T07:55:00.934Z,99480.53
2022-11-09T07:57:27.883Z,99475.16
2022-11-09T07:59:54.907Z,99481.34
2022-11-09T08:02:21.990Z,99482.97
2022-11-09T08:04:48.949Z,99493.69
2022-11-09T08:07:15.925Z,99506.03
2022-11-09T08:09:42.922Z,99500.69
2022-11-09T08:12:09.862Z,99498.03
2022-11-09T08:14:36.802Z,99507.69
2022-11-09T08:17:03.748Z,99514.69
2022-11-09T08:19:30.692Z,99521.69
2022-11-09T08:21:57.903Z,99535.69
2022-11-09T08:24:25.018Z,99532.00
2022-11-09T08:26:51.964Z,99540.63
2022-11-09T08:29:18.984Z,99552.97
2022-11-09T08:31:46.000Z,99552.97
2022-11-09T08:34:14.893Z,99555.44
2022-11-09T08:36:42.212Z,99539.16
2022-11-09T08:39:10.002Z,99541.00
2022-11-09T08:41:37.386Z,99539.78
2022-11-09T08:44:04.371Z,99547.59
2022-11-09T08:46:31.335Z,99549.25
2022-11-09T08:48:58.310Z,99555.19
2022-11-09T08:51:25.298Z,99549.66
2022-11-09T08:53:52.281Z,99545.72
2022-11-09T08:56:19.273Z,99545.50
2022-11-09T08:58:46.799Z,99547.16
2022-11-09T09:01:17.233Z,99553.97
2022-11-09T09:03:45.339Z,99553.75
2022-11-09T09:06:13.352Z,99551.66
2022-11-09T09:08:40.369Z,99553.94
2022-11-09T09:11:07.492Z,99554.31
2022-11-09T09:13:37.688Z,99554.72
2022-11-09T09:16:15.862Z,99543.59
2022-11-09T09:18:43.240Z,99548.09
2022-11-09T09:21:11.147Z,99547.84
2022-11-09T09:23:38.186Z,99548.66
2022-11-09T09:26:05.841Z,99552.28
2022-11-09T09:28:33.134Z,99547.72
2022-11-09T09:31:01.825Z,99541.91
2022-11-09T09:33:29.171Z,99549.69
2022-11-09T09:35:58.089Z,99543.69
2022-11-09T09:38:26.427Z,99555.19
2022-11-09T09:41:05.743Z,99559.91
2022-11-09T09:43:44.477Z,99566.06
2022-11-09T09:46:23.548Z,99561.06
2022-11-09T09:49:05.203Z,99573.59
2022-11-09T09:51:52.355Z,99567.59
2022-11-09T09:54:34.921Z,99573.75
2022-11-09T09:57:02.545Z,99571.44
2022-11-09T09:59:53.538Z,99587.88
2022-11-09T10:02:26.381Z,99581.66
2022-11-09T10:05:00.518Z,99591.28
2022-11-09T10:07:56.778Z,99593.31
2022-11-09T10:10:44.354Z,99587.28
2022-11-09T10:13:23.776Z,99594.22
2022-11-09T10:16:03.918Z,99578.75
2022-11-09T10:18:48.162Z,99585.09
2022-11-09T10:21:58.521Z,99577.78
2022-11-09T10:24:48.763Z,99569.88
2022-11-09T10:27:48.606Z,99565.94
2022-11-09T10:30:19.000Z,99564.91
2022-11-09T10:32:51.306Z,99558.25
2022-11-09T10:35:56.855Z,99565.06
2022-11-09T10:38:33.488Z,99565.63
2022-11-09T10:41:40.964Z,99572.06
2022-11-09T10:44:26.395Z,99548.88
2022-11-09T10:47:18.240Z,99557.28
2022-11-09T10:50:25.082Z,99563.84
2022-11-09T10:53:32.539Z,99557.59
2022-11-09T10:56:21.787Z,99562.50
2022-11-09T10:59:48.720Z,99567.44
2022-11-09T11:02:44.176Z,99558.50
2022-11-09T11:05:31.889Z,99555.91
2022-11-09T11:08:33.010Z,99557.72
2022-11-09T11:11:35.744Z,99562.22
2022-11-09T11:14:41.732Z,99558.41
2022-11-09T11:17:36.407Z,99561.81
2022-11-09T11:20:37.745Z,99563.59
2022-11-09T11:23:26.259Z,99553.22
2022-11-09T11:26:50.457Z,99552.31
2022-11-09T11:29:46.528Z,99556.78
2022-11-09T11:32:32.582Z,99554.66
2022-11-09T11:35:36.838Z,99547.91
2022-11-09T11:38:51.528Z,99549.69
2022-11-09T11:41:45.882Z,99543.72
2022-11-09T11:48:47.708Z,99537.88
2022-11-09T11:52:14.659Z,99549.22
2022-11-09T11:55:39.302Z,99540.56
2022-11-09T11:59:01.165Z,99544.31
2022-11-09T12:02:22.766Z,99548.03
2022-11-09T12:06:01.860Z,99539.41
2022-11-09T12:09:18.159Z,99542.09
2022-11-09T12:12:13.208Z,99539.63
2022-11-09T12:15:53.603Z,99539.25
2022-11-09T12:19:26.566Z,99541.22
2022-11-09T12:22:46.290Z,99544.97
2022-11-09T12:26:10.647Z,99543.09
2022-11-09T12:29:21.940Z,99543.91
2022-11-09T12:32:18.365Z,99539.59
2022-11-09T12:35:33.876Z,99531.88
2022-11-09T12:38:31.040Z,99538.53
2022-11-09T12:41:24.337Z,99533.97
2022-11-09T12:44:25.925Z,99533.97
2022-11-09T12:47:17.015Z,99534.66
2022-11-09T12:50:03.217Z,99538.63
2022-11-09T12:52:52.180Z,99539.44
2022-11-09T12:55:53.490Z,99540.28
2022-11-09T12:58:39.847Z,99535.72
2022-11-09T13:01:34.402Z,99542.38
2022-11-09T13:04:22.362Z,99533.59
2022-11-09T13:07:13.843Z,99534.66
2022-11-09T13:10:02.629Z,99537.94
2022-11-09T13:12:48.151Z,99541.91
2022-11-09T13:15:35.547Z,99530.81
2022-11-09T13:18:35.295Z,99534.31
2022-11-09T13:21:21.530Z,99538.63
2022-11-09T13:24:31.741Z,99538.41
2022-11-09T13:27:48.352Z,99538.63
2022-11-09T13:30:44.071Z,99539.91
2022-11-09T13:33:33.618Z,99545.97
2022-11-09T13:36:23.170Z,99544.78
2022-11-09T13:39:29.458Z,99545.00
2022-11-09T13:42:35.977Z,99546.88
2022-11-09T13:45:52.693Z,99554.13
2022-11-09T13:48:51.411Z,99546.31
2022-11-09T13:51:36.849Z,99543.00
2022-11-09T13:54:37.439Z,99547.56
2022-11-09T13:57:24.849Z,99549.19
2022-11-09T14:00:23.427Z,99554.81
2022-11-09T14:03:29.276Z,99553.41
2022-11-09T14:06:14.932Z,99551.75
2022-11-09T14:09:02.614Z,99556.75
2022-11-09T14:12:24.675Z,99558.84
2022-11-09T14:16:14.872Z,99565.47
2022-11-09T14:19:32.103Z,99567.34
2022-11-09T14:22:20.122Z,99565.94
2022-11-09T14:25:19.277Z,99565.34
2022-11-09T14:28:28.180Z,99567.22
2022-11-09T14:31:29.426Z,99572.38
2022-11-09T14:34:16.753Z,99570.09
2022-11-09T14:37:05.732Z,99567.22
2022-11-09T14:39:53.941Z,99574.28
2022-11-09T14:42:44.907Z,99582.59
2022-11-09T14:45:31.882Z,99579.75
2022-11-09T14:48:20.261Z,99585.94
2022-11-09T14:51:11.950Z,99591.31
2022-11-09T14:53:58.521Z,99589.69
2022-11-09T14:56:45.255Z,99581.81
2022-11-09T14:59:36.308Z,99578.78
2022-11-09T15:02:23.414Z,99581.06
2022-11-09T15:05:29.822Z,99582.81
2022-11-09T15:08:22.384Z,99584.66
2022-11-09T15:11:08.786Z,99584.88
2022-11-09T15:13:54.356Z,99590.25
2022-11-09T15:16:40.345Z,99589.06
2022-11-09T15:19:47.552Z,99581.22
2022-11-09T15:22:47.261Z,99586.00
2022-11-09T15:25:55.816Z,99585.19
2022-11-09T15:28:47.358Z,99579.22
2022-11-09T15:31:33.500Z,99578.00
2022-11-09T15:34:26.923Z,99579.66
2022-11-09T15:37:47.008Z,99568.78
2022-11-09T15:40:32.539Z,99565.25
2022-11-09T15:43:18.053Z,99565.72
2022-11-09T15:46:05.027Z,99586.38
2022-11-09T15:48:50.660Z,99597.53
2022-11-09T15:51:36.009Z,99607.09
2022-11-09T15:54:23.961Z,99613.69
2022-11-09T15:57:18.782Z,99611.88
2022-11-09T16:00:09.184Z,99614.56
2022-11-09T16:02:58.191Z,99614.97
2022-11-09T16:05:45.358Z,99609.25
2022-11-09T16:08:30.785Z,99618.53
2022-11-09T16:11:16.466Z,99614.22
2022-11-09T16:14:03.704Z,99626.00
2022-11-09T16:16:49.724Z,99626.22
2022-11-09T16:19:35.501Z,99624.56
2022-11-09T16:22:21.191Z,99629.09
2022-11-09T16:25:07.372Z,99636.56
2022-11-09T16:27:54.031Z,99644.63
2022-11-09T16:30:45.519Z,99653.72
2022-11-09T16:33:33.188Z,99660.34
2022-11-09T16:36:24.094Z,99662.41
2022-11-09T16:39:12.804Z,99666.34
2022-11-09T16:42:01.912Z,99671.72
2022-11-09T16:44:49.425Z,99670.09
2022-11-09T16:47:45.429Z,99676.69
2022-11-09T16:50:31.132Z,99678.56
2022-11-09T16:53:16.582Z,99687.63
2022-11-09T16:56:02.376Z,99693.22
2022-11-09T16:58:48.408Z,99698.59
2022-11-09T17:01:34.135Z,99696.13
2022-11-09T17:04:21.611Z,99703.56
2022-11-09T17:07:10.324Z,99701.91
2022-11-09T17:09:56.201Z,99713.47
2022-11-09T17:12:41.689Z,99719.88
2022-11-09T17:15:27.351Z,99717.41
2022-11-09T17:18:13.372Z,99724.41
2022-11-09T17:20:59.366Z,99718.47
2022-11-09T17:23:44.986Z,99729.19
2022-11-09T17:26:32.737Z,99731.88
2022-11-09T17:29:18.382Z,99736.41
2022-11-09T17:32:06.719Z,99749.19
2022-11-09T17:34:52.710Z,99757.47
2022-11-09T17:37:38.277Z,99765.53
2022-11-09T17:40:23.912Z,99769.69
2022-11-09T17:43:09.286Z,99766.81
2022-11-09T17:45:54.747Z,99773.03
2022-11-09T17:48:43.253Z,99784.16
2022-11-09T17:51:28.749Z,99769.34
2022-11-09T17:54:14.932Z,99769.81
2022-11-09T17:57:01.044Z,99758.28
2022-11-09T17:59:46.718Z,99765.50
2022-11-09T18:02:35.235Z,99777.47
2022-11-09T18:05:20.575Z,99777.72
2022-11-09T18:08:11.045Z,99776.91
2022-11-09T18:11:01.239Z,99776.69
2022-11-09T18:13:46.840Z,99783.69
2022-11-09T18:16:32.283Z,99789.06
2022-11-09T18:19:18.011Z,99787.22
2022-11-09T18:22:06.569Z,99787.63
2022-11-09T18:24:55.242Z,99783.72
2022-11-09T18:27:40.796Z,99785.56
2022-11-09T18:30:26.772Z,99793.81
2022-11-09T18:33:12.453Z,99795.88
2022-11-09T18:36:15.374Z,99805.13
2022-11-09T18:39:03.050Z,99809.06
2022-11-09T18:41:48.605Z,99814.41
2022-11-09T18:44:34.089Z,99818.94
2022-11-09T18:47:20.417Z,99818.50
2022-11-09T18:50:06.929Z,99825.94
2022-11-09T18:52:52.495Z,99828.00
2022-11-09T18:55:37.941Z,99828.00
2022-11-09T18:58:23.802Z,99824.69
2022-11-09T19:01:09.740Z,99823.03
2022-11-09T19:03:59.548Z,99822.00
2022-11-09T19:06:45.923Z,99826.75
2022-11-09T19:09:35.487Z,99833.13
2022-11-09T19:12:21.187Z,99835.81
2022-11-09T19:15:07.467Z,99841.16
2022-11-09T19:17:54.026Z,99846.50
2022-11-09T19:20:39.677Z,99850.22
2022-11-09T19:23:32.843Z,99853.09
2022-11-09T19:26:23.435Z,99855.97
2022-11-09T19:29:14.341Z,99858.66
2022-11-09T19:32:00.107Z,99848.97
2022-11-09T19:34:46.729Z,99858.03
2022-11-09T19:37:32.639Z,99866.06
2022-11-09T19:40:18.658Z,99872.44
2022-11-09T19:43:04.526Z,99874.50
2022-11-09T19:45:50.217Z,99884.34
2022-11-09T19:48:35.964Z,99885.59
2022-11-09T19:51:22.563Z,99890.94
2022-11-09T19:54:10.891Z,99896.31
2022-11-09T19:56:56.883Z,99893.00
2022-11-09T19:59:42.530Z,99902.25
2022-11-09T20:02:28.141Z,99894.22
2022-11-09T20:05:13.981Z,99896.06
2022-11-09T20:08:01.946Z,99895.47
2022-11-09T20:10:47.746Z,99895.47
2022-11-09T20:13:34.101Z,99898.13
2022-11-09T20:16:19.764Z,99899.78
2022-11-09T20:19:09.297Z,99901.63
2022-11-09T20:21:55.028Z,99897.09
2022-11-09T20:24:40.496Z,99897.94
2022-11-09T20:27:29.441Z,99905.97
2022-11-09T20:30:17.605Z,99918.50
2022-11-09T20:33:03.462Z,99927.56
2022-11-09T20:35:56.393Z,99936.41
2022-11-09T20:38:42.723Z,99934.56
2022-11-09T20:41:28.787Z,99944.44
2022-11-09T20:44:15.735Z,99946.91
2022-11-09T20:47:01.583Z,99954.94
2022-11-09T20:49:48.367Z,99953.09
2022-11-09T20:52:34.463Z,99968.31
2022-11-09T20:55:19.997Z,99962.97
2022-11-09T20:58:06.419Z,99968.31
2022-11-09T21:01:12.082Z,99968.31
2022-11-09T21:03:57.666Z,99975.31
2022-11-09T21:06:43.340Z,99980.66
2022-11-09T21:09:29.072Z,99979.84
2022-11-09T21:12:24.904Z,99984.38
2022-11-09T21:15:11.161Z,99977.38
2022-11-09T21:17:56.825Z,99978.41
2022-11-09T21:20:43.458Z,99987.47
2022-11-09T21:23:28.892Z,99987.66
2022-11-09T21:26:33.289Z,99998.53
2022-11-09T21:29:42.531Z,99995.25
2022-11-09T21:32:30.559Z,100005.97
2022-11-09T21:35:16.109Z,100020.53
2022-11-09T21:38:01.542Z,100015.34
2022-11-09T21:40:47.378Z,100025.44
2022-11-09T21:43:33.217Z,100022.16
2022-11-09T21:46:18.984Z,100027.69
2022-11-09T21:49:06.419Z,100026.22
2022-11-09T21:51:52.390Z,100025.59
2022-11-09T21:54:38.137Z,100024.97
2022-11-09T21:57:23.797Z,100030.72
2022-11-09T22:00:10.482Z,100033.78
2022-11-09T22:02:55.920Z,100033.13
2022-11-09T22:05:41.330Z,100043.00
2022-11-09T22:08:27.390Z,100052.88
2022-11-09T22:11:41.285Z,100054.94
2022-11-09T22:15:05.612Z,100063.97
2022-11-09T22:17:54.218Z,100064.34
2022-11-09T22:20:54.742Z,100069.91
2022-11-09T22:23:40.090Z,100073.81
2022-11-09T22:26:26.351Z,100082.84
2022-11-09T22:29:11.962Z,100089.41
2022-11-09T22:31:57.404Z,100087.94
2022-11-09T22:34:43.602Z,100083.63
2022-11-09T22:37:29.206Z,100092.00
2022-11-09T22:40:14.909Z,100098.38
2022-11-09T22:43:00.693Z,100109.28
2022-11-09T22:45:46.335Z,100111.94
2022-11-09T22:48:33.557Z,100123.66
2022-11-09T22:51:19.511Z,100121.00
2022-11-09T22:54:05.170Z,100118.50
2022-11-09T22:56:50.802Z,100130.88
2022-11-09T22:59:36.200Z,100122.19
2022-11-09T23:02:21.774Z,100130.22
2022-11-09T23:05:08.756Z,100133.91
2022-11-09T23:07:55.697Z,100136.16
2022-11-09T23:10:41.283Z,100143.50
2022-11-09T23:13:26.874Z,100151.09
2022-11-09T23:16:12.353Z,100154.13
2022-11-09T23:18:58.112Z,100156.38
2022-11-09T23:21:43.592Z,100158.59
2022-11-09T23:24:47.711Z,100164.31
2022-11-09T23:27:33.346Z,100166.72
2022-11-09T23:30:19.636Z,100162.59
2022-11-09T23:33:05.215Z,100169.13
2022-11-09T23:35:51.057Z,100164.16
2022-11-09T23:38:38.758Z,100166.38
2022-11-09T23:41:24.375Z,100167.59
2022-11-09T23:44:10.167Z,100166.13
2022-11-09T23:46:55.542Z,100171.84
2022-11-09T23:49:40.977Z,100182.91
2022-11-09T23:52:26.438Z,100180.41
2022-11-09T23:55:12.145Z,100177.09
2022-11-09T23:58:01.368Z,100183.66
